Time;durP1;ratioP1;P1;durP2;ratioP2;P2;SDS_P1;SDS_P2;PMS_P1;PMS_P2;Temp;Humidity;BMP_temperature;BMP_pressure;BME280_temperature;BME280_humidity;BME280_pressure;Samples;Min_cycle;Max_cycle;Signal;HPM_P1;HPM_P2
2023/04/06 00:00:49;;;;;;;27.37;2.00;;;1.30;74.80;;;;;;5033761;28;20274;-74
2023/04/06 00:03:15;;;;;;;0.37;0.37;;;1.20;74.90;;;;;;5033563;28;20578;-74
2023/04/06 00:05:41;;;;;;;0.30;0.30;;;1.20;75.80;;;;;;5033761;28;20176;-75
2023/04/06 00:08:07;;;;;;;0.30;0.30;;;1.20;76.40;;;;;;5032599;28;20250;-76
2023/04/06 00:10:32;;;;;;;0.50;0.50;;;1.30;76.20;;;;;;5033410;28;20250;-71
2023/04/06 00:12:59;;;;;;;1.20;1.20;;;1.30;77.20;;;;;;5032988;28;20458;-72
2023/04/06 00:15:25;;;;;;;13.20;1.23;;;1.10;77.40;;;;;;5033511;28;20195;-72
2023/04/06 00:17:51;;;;;;;0.30;0.30;;;1.10;77.40;;;;;;5033322;28;20175;-74
2023/04/06 00:20:17;;;;;;;0.50;0.50;;;1.10;76.00;;;;;;5033684;28;20190;-75
2023/04/06 00:22:43;;;;;;;0.30;0.30;;;1.00;76.20;;;;;;5033826;28;20180;-72
2023/04/06 00:25:10;;;;;;;0.40;0.40;;;1.00;75.80;;;;;;5033145;28;20176;-74
2023/04/06 00:27:36;;;;;;;0.50;0.50;;;1.00;76.10;;;;;;5033258;28;20524;-74
2023/04/06 00:30:04;;;;;;;0.30;0.30;;;1.00;77.60;;;;;;5033489;28;20210;-74
2023/04/06 00:32:30;;;;;;;0.30;0.30;;;1.00;78.00;;;;;;5033159;28;20175;-72
2023/04/06 00:34:56;;;;;;;0.40;0.40;;;1.00;78.50;;;;;;5033447;28;20179;-73
2023/04/06 00:37:22;;;;;;;1.00;0.70;;;1.00;79.10;;;;;;5033655;28;20168;-73
2023/04/06 00:39:47;;;;;;;0.33;0.33;;;1.00;78.30;;;;;;5033007;28;20623;-76
2023/04/06 00:42:13;;;;;;;0.70;0.70;;;1.10;78.30;;;;;;5015866;28;20421;-75
2023/04/06 00:44:40;;;;;;;0.38;0.38;;;1.10;77.90;;;;;;5015481;28;20536;-73
2023/04/06 00:47:06;;;;;;;0.40;0.40;;;1.10;77.80;;;;;;5033420;28;20238;-75
2023/04/06 00:49:33;;;;;;;0.30;0.30;;;1.00;78.80;;;;;;5033198;28;20176;-74
2023/04/06 00:51:58;;;;;;;0.88;0.52;;;1.00;79.50;;;;;;5033494;28;20528;-74
2023/04/06 00:54:24;;;;;;;0.30;0.30;;;1.00;79.80;;;;;;5032898;28;20209;-72
2023/04/06 00:56:50;;;;;;;0.32;0.32;;;0.90;79.80;;;;;;5033082;28;20175;-74
2023/04/06 00:59:16;;;;;;;0.30;0.30;;;0.90;79.70;;;;;;5033314;28;20580;-75
2023/04/06 01:01:41;;;;;;;0.40;0.40;;;0.90;78.60;;;;;;5032913;28;20704;-76
2023/04/06 01:04:07;;;;;;;1.00;0.93;;;0.90;77.80;;;;;;5032736;28;20204;-71
2023/04/06 01:06:32;;;;;;;0.77;0.50;;;0.80;78.00;;;;;;5033436;28;20206;-76
2023/04/06 01:08:58;;;;;;;0.30;0.30;;;1.00;78.10;;;;;;5032858;28;20178;-73
2023/04/06 01:11:24;;;;;;;0.40;0.40;;;1.10;77.90;;;;;;5032804;28;20245;-75
2023/04/06 01:13:49;;;;;;;1.60;1.50;;;1.00;77.90;;;;;;5032475;28;20231;-77
2023/04/06 01:16:15;;;;;;;0.40;0.40;;;0.90;77.90;;;;;;5033072;28;20176;-75
2023/04/06 01:18:42;;;;;;;0.90;0.90;;;0.90;78.30;;;;;;5034063;28;20178;-76
2023/04/06 01:21:15;;;;;;;0.30;0.30;;;2.00;81.10;;;;;;5019295;28;20925;-73
2023/04/06 01:23:45;;;;;;;0.65;0.65;;;0.90;80.60;;;;;;5036430;28;20240;-74
2023/04/06 01:26:11;;;;;;;0.40;0.40;;;0.80;80.50;;;;;;5036563;28;20187;-74
2023/04/06 01:28:37;;;;;;;0.30;0.30;;;0.90;80.70;;;;;;5018911;28;20180;-76
2023/04/06 01:31:06;;;;;;;0.88;0.88;;;0.80;80.40;;;;;;5044055;28;20216;-73
2023/04/06 01:33:31;;;;;;;2.15;0.93;;;0.80;80.40;;;;;;5036342;28;20218;-74
2023/04/06 01:35:57;;;;;;;0.40;0.40;;;0.80;81.20;;;;;;5036389;28;20531;-73
2023/04/06 01:38:23;;;;;;;0.30;0.30;;;0.80;82.10;;;;;;5036216;28;20180;-73
2023/04/06 01:40:48;;;;;;;0.40;0.40;;;0.80;82.60;;;;;;5036311;28;20184;-75
2023/04/06 01:43:14;;;;;;;0.40;0.40;;;0.80;82.90;;;;;;5036045;28;20236;-73
2023/04/06 01:45:40;;;;;;;0.30;0.30;;;0.90;81.70;;;;;;5036142;28;20183;-75
2023/04/06 01:48:07;;;;;;;0.40;0.40;;;0.90;80.30;;;;;;5035891;28;20937;-72
2023/04/06 01:50:32;;;;;;;0.30;0.30;;;0.90;80.10;;;;;;5036433;28;20270;-72
2023/04/06 01:52:58;;;;;;;0.57;0.57;;;0.70;80.90;;;;;;5035825;28;20624;-77
2023/04/06 01:55:24;;;;;;;0.40;0.40;;;0.70;81.50;;;;;;5036005;28;20175;-75
2023/04/06 01:57:50;;;;;;;0.40;0.40;;;0.60;82.00;;;;;;5035887;28;20195;-74
2023/04/06 02:00:16;;;;;;;0.40;0.40;;;0.60;82.60;;;;;;5018124;28;20235;-73
2023/04/06 02:02:41;;;;;;;0.33;0.33;;;0.60;82.00;;;;;;5036056;28;20398;-76
2023/04/06 02:05:08;;;;;;;0.37;0.37;;;0.60;82.00;;;;;;5035387;28;20557;-72
2023/04/06 02:07:34;;;;;;;0.40;0.40;;;0.70;82.50;;;;;;5035815;28;20171;-75
2023/04/06 02:09:59;;;;;;;0.30;0.30;;;0.70;84.10;;;;;;5035533;28;20187;-78
2023/04/06 02:12:25;;;;;;;0.97;0.97;;;0.60;84.70;;;;;;5035908;28;20515;-73
2023/04/06 02:14:51;;;;;;;0.50;0.50;;;0.60;84.80;;;;;;5035759;28;20529;-73
2023/04/06 02:17:17;;;;;;;0.30;0.30;;;0.60;85.30;;;;;;5035954;28;20183;-75
2023/04/06 02:19:42;;;;;;;0.40;0.40;;;0.40;89.30;;;;;;5035412;28;20184;-76
2023/04/06 02:22:09;;;;;;;0.40;0.40;;;0.50;84.80;;;;;;5017728;28;20197;-73
2023/04/06 02:24:35;;;;;;;0.35;0.35;;;0.50;85.20;;;;;;5035350;28;20172;-76
2023/04/06 02:27:01;;;;;;;0.30;0.30;;;0.60;85.60;;;;;;5035491;28;20183;-74
2023/04/06 02:29:26;;;;;;;0.40;0.40;;;0.60;85.80;;;;;;5035322;28;20180;-72
2023/04/06 02:31:52;;;;;;;0.50;0.50;;;0.60;84.70;;;;;;5035151;28;20207;-71
2023/04/06 02:34:18;;;;;;;0.40;0.40;;;0.70;83.80;;;;;;5035068;28;20241;-77
2023/04/06 02:36:47;;;;;;;0.40;0.40;;;0.60;83.60;;;;;;5035023;28;20178;-77
2023/04/06 02:39:13;;;;;;;0.30;0.30;;;0.60;83.70;;;;;;5035007;28;20171;-74
2023/04/06 02:41:39;;;;;;;0.73;0.73;;;0.60;84.20;;;;;;5035230;28;20195;-74
2023/04/06 02:44:08;;;;;;;0.40;0.40;;;0.50;84.60;;;;;;5034781;28;20256;-72
2023/04/06 02:46:34;;;;;;;2.25;2.15;;;0.50;84.80;;;;;;5034809;28;20520;-73
2023/04/06 02:49:00;;;;;;;0.40;0.40;;;0.50;85.20;;;;;;5035025;28;20171;-74
2023/04/06 02:51:26;;;;;;;1.15;0.60;;;0.50;85.50;;;;;;5034922;28;20333;-73
2023/04/06 02:53:52;;;;;;;0.30;0.30;;;0.50;87.20;;;;;;5034513;28;20206;-72
2023/04/06 02:56:18;;;;;;;1.60;1.50;;;0.50;87.00;;;;;;5034798;28;20498;-74
2023/04/06 02:58:43;;;;;;;0.50;0.50;;;0.40;87.40;;;;;;5035122;28;20402;-75
2023/04/06 03:01:09;;;;;;;3.80;1.33;;;0.50;87.80;;;;;;5034505;28;20191;-75
2023/04/06 03:03:35;;;;;;;0.50;0.50;;;0.50;88.10;;;;;;5034611;28;20175;-74
2023/04/06 03:06:00;;;;;;;0.77;0.63;;;0.40;88.20;;;;;;5016842;28;20545;-72
2023/04/06 03:08:26;;;;;;;0.40;0.40;;;0.50;86.70;;;;;;5034438;28;20225;-73
2023/04/06 03:10:52;;;;;;;0.50;0.50;;;0.60;85.50;;;;;;5034624;28;20210;-74
2023/04/06 03:13:17;;;;;;;0.73;0.73;;;0.50;85.60;;;;;;5034080;28;20202;-74
2023/04/06 03:15:43;;;;;;;0.40;0.40;;;0.60;85.00;;;;;;5034258;28;20171;-73
2023/04/06 03:18:08;;;;;;;0.40;0.40;;;0.60;85.10;;;;;;5034261;28;20182;-73
2023/04/06 03:20:34;;;;;;;0.37;0.37;;;0.50;85.30;;;;;;5036876;28;20183;-72
2023/04/06 03:23:00;;;;;;;0.40;0.40;;;0.50;85.70;;;;;;5020728;28;20654;-71
2023/04/06 03:25:25;;;;;;;0.50;0.50;;;0.40;85.60;;;;;;5034433;28;20185;-72
2023/04/06 03:27:51;;;;;;;0.63;0.63;;;0.40;85.10;;;;;;5034606;28;20645;-75
2023/04/06 03:30:17;;;;;;;0.50;0.50;;;0.30;84.80;;;;;;5016878;28;20206;-76
2023/04/06 03:32:46;;;;;;;0.40;0.40;;;0.30;85.60;;;;;;5033850;28;20174;-75
2023/04/06 03:35:11;;;;;;;0.40;0.40;;;0.30;87.00;;;;;;5033749;28;20182;-76
2023/04/06 03:37:37;;;;;;;0.30;0.30;;;0.40;87.50;;;;;;5034119;28;20163;-76
2023/04/06 03:40:04;;;;;;;0.60;0.60;;;0.30;88.00;;;;;;5034130;28;20201;-74
2023/04/06 03:42:30;;;;;;;0.40;0.40;;;0.30;88.60;;;;;;5034254;28;20178;-76
2023/04/06 03:44:56;;;;;;;0.30;0.30;;;0.30;88.10;;;;;;5033561;28;20553;-75
2023/04/06 03:47:22;;;;;;;0.90;0.90;;;0.20;88.00;;;;;;5033786;28;20167;-74
2023/04/06 03:49:47;;;;;;;0.60;0.60;;;0.30;88.50;;;;;;5033591;28;20171;-74
2023/04/06 03:52:13;;;;;;;0.33;0.33;;;0.30;87.70;;;;;;5033660;28;20404;-74
2023/04/06 03:54:39;;;;;;;0.40;0.40;;;0.30;88.80;;;;;;5033789;28;20195;-73
2023/04/06 03:57:04;;;;;;;0.40;0.40;;;0.20;87.90;;;;;;5033699;28;20242;-71
2023/04/06 03:59:30;;;;;;;0.40;0.40;;;0.20;87.80;;;;;;5034129;28;20558;-77
2023/04/06 04:01:56;;;;;;;0.40;0.40;;;0.20;88.60;;;;;;5033802;28;20189;-75
2023/04/06 04:04:21;;;;;;;0.30;0.30;;;0.20;87.90;;;;;;5033551;28;20170;-73
2023/04/06 04:06:47;;;;;;;0.60;0.60;;;0.10;88.70;;;;;;5033691;28;20175;-75
2023/04/06 04:09:13;;;;;;;0.57;0.50;;;0.10;89.70;;;;;;5033655;28;20175;-73
2023/04/06 04:11:38;;;;;;;0.40;0.40;;;0.00;90.40;;;;;;5033928;28;20571;-75
2023/04/06 04:14:04;;;;;;;1.07;1.07;;;0.00;90.40;;;;;;5033013;28;20205;-74
2023/04/06 04:16:29;;;;;;;0.57;0.57;;;0.00;90.50;;;;;;5033362;28;20536;-76
2023/04/06 04:18:55;;;;;;;0.40;0.40;;;0.00;90.70;;;;;;5033359;28;20175;-75
2023/04/06 04:21:21;;;;;;;0.40;0.40;;;0.10;90.00;;;;;;5033472;28;20183;-75
2023/04/06 04:23:46;;;;;;;0.50;0.50;;;0.20;89.40;;;;;;5033152;28;20213;-77
2023/04/06 04:26:12;;;;;;;0.40;0.40;;;1.40;90.20;;;;;;5033669;28;20198;-72
2023/04/06 04:28:38;;;;;;;0.50;0.50;;;0.20;89.50;;;;;;5033812;28;20171;-75
2023/04/06 04:31:06;;;;;;;0.30;0.30;;;0.10;89.80;;;;;;5033790;28;20716;-75
2023/04/06 04:33:32;;;;;;;0.73;0.73;;;0.10;89.80;;;;;;5033213;28;20534;-75
2023/04/06 04:35:57;;;;;;;0.40;0.40;;;0.10;89.60;;;;;;5033060;28;20178;-75
2023/04/06 04:38:23;;;;;;;0.40;0.40;;;0.00;89.10;;;;;;5033461;28;20171;-75
2023/04/06 04:40:49;;;;;;;0.30;0.30;;;0.00;89.40;;;;;;5033251;28;20278;-75
2023/04/06 04:43:15;;;;;;;0.40;0.40;;;0.00;89.90;;;;;;5032803;28;20251;-75
2023/04/06 04:45:40;;;;;;;4.40;1.80;;;0.00;89.60;;;;;;5033178;28;20177;-74
2023/04/06 04:48:07;;;;;;;0.40;0.40;;;;;;;;;;5033241;28;20182;-74
2023/04/06 04:50:33;;;;;;;0.40;0.40;;;0.10;87.40;;;;;;5032953;28;20213;-73
2023/04/06 04:52:59;;;;;;;0.50;0.50;;;0.10;88.10;;;;;;5033322;28;20346;-74
2023/04/06 04:55:25;;;;;;;0.93;0.93;;;0.10;88.50;;;;;;5037018;28;20250;-72
2023/04/06 04:57:50;;;;;;;0.70;0.70;;;0.10;88.50;;;;;;5037454;28;20229;-76
2023/04/06 05:00:16;;;;;;;0.40;0.40;;;0.10;88.90;;;;;;5036916;28;20282;-73
2023/04/06 05:02:41;;;;;;;0.90;0.90;;;0.10;89.50;;;;;;5036951;28;20202;-72
2023/04/06 05:05:08;;;;;;;0.40;0.40;;;0.10;89.60;;;;;;5019067;28;20171;-76
2023/04/06 05:07:33;;;;;;;1.55;1.55;;;0.10;90.20;;;;;;5019375;28;20518;-77
2023/04/06 05:09:59;;;;;;;0.40;0.40;;;0.10;90.10;;;;;;5036760;28;20209;-75
2023/04/06 05:12:26;;;;;;;0.50;0.50;;;0.20;89.80;;;;;;5037648;28;20169;-73
2023/04/06 05:14:53;;;;;;;0.43;0.43;;;0.20;89.90;;;;;;5042026;28;20202;-74
2023/04/06 05:17:19;;;;;;;0.65;0.65;;;0.30;89.50;;;;;;5036867;28;20213;-72
2023/04/06 05:19:45;;;;;;;0.30;0.30;;;0.30;90.00;;;;;;5037172;28;20605;-74
2023/04/06 05:22:11;;;;;;;0.30;0.30;;;0.30;89.90;;;;;;5036911;28;20171;-74
2023/04/06 05:24:36;;;;;;;0.77;0.77;;;0.30;90.10;;;;;;5036402;28;20174;-77
2023/04/06 05:27:02;;;;;;;0.40;0.40;;;0.40;89.70;;;;;;5036942;28;20285;-73
2023/04/06 05:29:28;;;;;;;0.53;0.53;;;0.50;89.20;;;;;;5036315;28;20176;-74
2023/04/06 05:31:54;;;;;;;0.40;0.40;;;0.50;89.00;;;;;;5036112;28;20445;-72
2023/04/06 05:34:20;;;;;;;0.40;0.40;;;0.60;89.00;;;;;;5036286;28;20604;-76
2023/04/06 05:36:45;;;;;;;0.40;0.40;;;0.60;88.50;;;;;;5018737;28;20593;-73
2023/04/06 05:39:12;;;;;;;0.40;0.40;;;0.60;88.30;;;;;;5036606;28;20182;-76
2023/04/06 05:41:38;;;;;;;0.40;0.40;;;0.60;88.60;;;;;;5036628;28;20516;-73
2023/04/06 05:44:03;;;;;;;0.70;0.70;;;1.20;89.00;;;;;;5035961;28;20182;-77
2023/04/06 05:46:29;;;;;;;0.50;0.50;;;0.80;88.80;;;;;;5036429;28;20238;-74
2023/04/06 05:48:55;;;;;;;0.40;0.40;;;0.80;89.20;;;;;;5036236;28;20172;-75
2023/04/06 05:51:21;;;;;;;1.05;0.50;;;0.90;89.00;;;;;;5018567;28;20200;-72
2023/04/06 05:53:47;;;;;;;0.40;0.40;;;1.00;89.20;;;;;;5035725;28;20680;-73
2023/04/06 05:56:12;;;;;;;0.40;0.40;;;1.10;89.00;;;;;;5036375;28;20172;-76
2023/04/06 05:58:38;;;;;;;0.57;0.57;;;1.20;88.70;;;;;;5036025;28;20170;-73
2023/04/06 06:01:04;;;;;;;0.60;0.60;;;1.20;88.80;;;;;;5035641;28;20200;-74
2023/04/06 06:03:30;;;;;;;0.52;0.52;;;1.30;88.60;;;;;;5035518;28;20544;-76
2023/04/06 06:06:03;;;;;;;0.53;0.53;;;1.30;87.20;;;;;;5034787;28;20188;-73
2023/04/06 06:08:29;;;;;;;0.38;0.38;;;1.40;86.80;;;;;;5036160;28;20883;-73
2023/04/06 06:10:55;;;;;;;0.85;0.85;;;1.50;86.60;;;;;;5035498;28;20220;-72
2023/04/06 06:13:22;;;;;;;0.30;0.30;;;2.10;86.70;;;;;;5035617;28;20208;-75
2023/04/06 06:15:48;;;;;;;1.20;1.10;;;1.80;86.20;;;;;;5035656;28;20197;-73
2023/04/06 06:18:13;;;;;;;0.50;0.50;;;2.10;84.80;;;;;;5035736;28;20248;-75
2023/04/06 06:20:39;;;;;;;0.40;0.40;;;2.50;83.40;;;;;;5035537;28;20429;-75
2023/04/06 06:23:04;;;;;;;1.30;1.03;;;2.90;82.10;;;;;;5035119;28;20198;-75
2023/04/06 06:25:30;;;;;;;0.70;0.70;;;3.10;80.80;;;;;;5035870;28;20722;-76
2023/04/06 06:27:56;;;;;;;1.80;0.93;;;3.40;79.50;;;;;;5035863;28;20180;-73
2023/04/06 06:30:22;;;;;;;1.65;1.55;;;3.60;78.20;;;;;;5035366;28;20426;-78
2023/04/06 06:32:48;;;;;;;3.20;2.33;;;3.80;77.60;;;;;;5035432;28;20174;-77
2023/04/06 06:35:14;;;;;;;5.87;2.20;;;4.20;77.30;;;;;;5035533;28;20533;-78
2023/04/06 06:37:40;;;;;;;0.77;0.77;;;4.60;75.70;;;;;;5035650;28;20485;-76
2023/04/06 06:40:06;;;;;;;2.85;2.63;;;5.10;74.50;;;;;;5034865;28;20215;-77
2023/04/06 06:42:32;;;;;;;1.73;1.38;;;5.50;73.10;;;;;;5034931;28;20242;-75
2023/04/06 06:44:57;;;;;;;1.27;1.20;;;5.90;71.80;;;;;;5034664;28;20199;-75
2023/04/06 06:47:23;;;;;;;3.40;1.23;;;6.20;69.90;;;;;;5034906;28;20178;-76
2023/04/06 06:49:49;;;;;;;6.40;1.33;;;6.40;68.90;;;;;;5034804;28;20183;-66
2023/04/06 06:52:14;;;;;;;1.37;1.27;;;6.60;71.60;;;;;;5035766;28;20648;-76
2023/04/06 06:54:40;;;;;;;1.80;1.37;;;7.20;78.70;;;;;;5034578;28;20197;-72
2023/04/06 06:57:06;;;;;;;12.20;1.70;;;7.80;68.20;;;;;;5034333;28;20903;-75
2023/04/06 06:59:31;;;;;;;1.43;1.33;;;8.50;63.70;;;;;;5034869;28;20679;-76
2023/04/06 07:01:57;;;;;;;1.43;0.70;;;9.20;60.20;;;;;;5034194;28;20191;-74
2023/04/06 07:04:23;;;;;;;2.77;2.60;;;9.80;58.00;;;;;;5034301;28;20198;-78
2023/04/06 07:06:48;;;;;;;0.93;0.93;;;10.20;54.30;;;;;;5035096;28;20167;-76
2023/04/06 07:09:14;;;;;;;2.90;1.70;;;10.60;53.40;;;;;;5034252;28;20202;-74
2023/04/06 07:11:39;;;;;;;1.33;1.33;;;11.10;53.00;;;;;;5033768;28;20198;-76
2023/04/06 07:14:05;;;;;;;2.00;1.90;;;11.90;50.40;;;;;;5033844;28;20210;-76
2023/04/06 07:16:31;;;;;;;0.63;0.63;;;12.70;50.00;;;;;;5016646;28;20167;-76
2023/04/06 07:18:56;;;;;;;1.50;1.13;;;14.20;47.70;;;;;;5033798;28;20661;-78
2023/04/06 07:21:22;;;;;;;2.93;0.83;;;15.80;45.60;;;;;;5034710;28;20279;-79
2023/04/06 07:23:48;;;;;;;1.53;1.43;;;17.40;40.60;;;;;;5033565;28;20174;-77
2023/04/06 07:26:14;;;;;;;0.63;0.63;;;19.00;38.10;;;;;;5034295;28;20513;-75
2023/04/06 07:28:40;;;;;;;0.93;0.93;;;20.60;35.20;;;;;;5034444;28;20405;-75
2023/04/06 07:31:05;;;;;;;0.90;0.90;;;22.00;30.80;;;;;;5034383;28;20183;-80
2023/04/06 07:33:31;;;;;;;0.83;0.80;;;22.90;29.90;;;;;;5034024;28;20472;-77
2023/04/06 07:35:58;;;;;;;2.07;1.07;;;24.00;28.90;;;;;;5034572;28;20167;-76
2023/04/06 07:38:24;;;;;;;1.13;1.07;;;24.80;28.20;;;;;;5034320;28;20167;-79
2023/04/06 07:40:50;;;;;;;1.47;1.37;;;25.60;26.90;;;;;;5033972;28;20426;-83
2023/04/06 07:43:16;;;;;;;1.17;1.07;;;26.20;26.40;;;;;;5032591;28;20416;-74
2023/04/06 07:45:41;;;;;;;1.10;1.10;;;26.60;25.70;;;;;;5034076;28;20221;-75
2023/04/06 07:48:07;;;;;;;1.17;0.83;;;27.10;25.20;;;;;;5034163;28;20414;-80
2023/04/06 07:50:33;;;;;;;1.27;1.00;;;27.60;24.70;;;;;;5033947;28;20237;-79
2023/04/06 07:53:00;;;;;;;1.77;1.10;;;27.40;24.60;;;;;;5033914;28;20190;-82
2023/04/06 07:55:25;;;;;;;1.10;1.10;;;27.40;24.20;;;;;;5033862;28;20178;-76
2023/04/06 07:57:52;;;;;;;1.83;1.33;;;27.30;24.10;;;;;;5033719;28;20441;-79
2023/04/06 08:00:19;;;;;;;1.00;0.90;;;27.00;23.60;;;;;;5033810;28;20429;-73
2023/04/06 08:02:44;;;;;;;0.80;0.80;;;26.80;22.60;;;;;;5034041;28;20235;-72
2023/04/06 08:05:10;;;;;;;1.30;1.20;;;25.90;22.90;;;;;;5033875;28;20452;-78
2023/04/06 08:07:36;;;;;;;1.07;0.97;;;25.80;23.40;;;;;;5034242;28;20179;-76
2023/04/06 08:10:02;;;;;;;1.50;1.40;;;25.90;23.40;;;;;;5033297;28;20194;-76
2023/04/06 08:12:28;;;;;;;1.77;1.13;;;26.30;23.90;;;;;;5033640;28;20178;-77
2023/04/06 08:14:54;;;;;;;1.03;1.00;;;26.50;22.70;;;;;;5033487;28;20453;-76
2023/04/06 08:17:19;;;;;;;0.80;0.80;;;26.30;22.10;;;;;;5033763;28;20245;-73
2023/04/06 08:19:45;;;;;;;1.17;1.07;;;26.20;22.70;;;;;;5016289;28;20178;-79
2023/04/06 08:22:11;;;;;;;1.80;1.43;;;24.30;23.00;;;;;;5033963;28;20182;-77
2023/04/06 08:24:37;;;;;;;1.50;1.30;;;22.80;23.80;;;;;;5033188;28;20175;-82
2023/04/06 08:27:03;;;;;;;3.27;2.27;;;23.40;24.40;;;;;;5033616;28;20789;-79
2023/04/06 08:29:29;;;;;;;2.20;1.63;;;23.80;24.10;;;;;;5015175;28;20258;-76
2023/04/06 08:31:54;;;;;;;1.70;1.60;;;23.40;24.70;;;;;;5033604;28;20437;-78
2023/04/06 08:34:21;;;;;;;2.30;2.10;;;22.80;24.70;;;;;;5033012;28;20198;-77
2023/04/06 08:36:47;;;;;;;0.80;0.80;;;22.60;24.30;;;;;;5033789;28;20171;-76
2023/04/06 08:39:12;;;;;;;1.40;1.20;;;22.60;24.80;;;;;;5033389;28;20424;-78
2023/04/06 08:41:41;;;;;;;1.53;0.93;;;23.00;24.90;;;;;;5033306;28;20187;-76
2023/04/06 08:44:07;;;;;;;1.10;1.00;;;23.40;24.30;;;;;;5032424;28;20187;-79
2023/04/06 08:46:32;;;;;;;1.17;0.90;;;21.70;24.40;;;;;;5032764;28;20394;-77
2023/04/06 08:49:00;;;;;;;4.43;2.20;;;19.50;25.00;;;;;;5032538;28;20178;-77
2023/04/06 08:51:26;;;;;;;0.60;0.60;;;19.40;26.00;;;;;;5015869;28;20202;-76
2023/04/06 08:53:56;;;;;;;2.30;1.33;;;18.40;26.80;;;;;;5032915;28;20558;-77
2023/04/06 08:56:23;;;;;;;0.80;0.80;;;19.10;26.40;;;;;;5033244;28;20436;-77
2023/04/06 08:58:49;;;;;;;0.60;0.60;;;18.00;26.50;;;;;;5015918;28;20413;-77
2023/04/06 09:01:17;;;;;;;0.83;0.83;;;18.50;27.50;;;;;;5034309;28;20894;-77
2023/04/06 09:03:44;;;;;;;1.90;1.70;;;18.70;26.90;;;;;;5015324;28;20913;-76
2023/04/06 09:06:11;;;;;;;1.10;1.10;;;19.20;27.70;;;;;;5032955;28;20436;-76
2023/04/06 09:08:40;;;;;;;2.93;2.33;;;19.60;27.20;;;;;;5032978;28;20408;-76
2023/04/06 09:11:06;;;;;;;1.00;1.00;;;20.00;27.00;;;;;;5033073;28;20507;-79
2023/04/06 09:13:47;;;;;;;1.13;1.13;;;20.80;26.70;;;;;;5032776;28;20522;-79
2023/04/06 09:16:13;;;;;;;0.80;0.80;;;21.30;26.00;;;;;;5033203;28;20402;-75
2023/04/06 09:18:39;;;;;;;1.00;0.97;;;20.20;25.50;;;;;;5033012;28;20404;-77
2023/04/06 09:21:07;;;;;;;0.63;0.63;;;19.80;27.00;;;;;;5032930;28;20433;-76
2023/04/06 09:23:33;;;;;;;2.17;1.27;;;20.90;26.20;;;;;;5032740;28;20406;-77
2023/04/06 09:26:05;;;;;;;1.00;0.90;;;21.20;25.00;;;;;;5032925;28;20416;-78
2023/04/06 09:28:42;;;;;;;1.10;1.10;;;21.70;25.60;;;;;;5033077;28;20455;-78
2023/04/06 09:31:09;;;;;;;1.83;1.00;;;21.20;24.80;;;;;;5032954;28;20429;-79
2023/04/06 09:33:38;;;;;;;0.90;0.67;;;20.20;26.10;;;;;;5032410;28;20965;-76
2023/04/06 09:36:04;;;;;;;1.30;1.20;;;20.50;27.00;;;;;;5032920;28;20428;-77
2023/04/06 09:38:30;;;;;;;1.20;1.10;;;21.60;26.40;;;;;;5033014;28;20901;-78
2023/04/06 09:40:56;;;;;;;0.90;0.90;;;22.10;27.40;;;;;;5036188;28;20510;-75
2023/04/06 09:43:26;;;;;;;2.13;1.67;;;22.90;25.40;;;;;;5036565;28;20213;-77
2023/04/06 09:45:53;;;;;;;0.93;0.93;;;23.30;26.00;;;;;;5036314;28;20414;-77
2023/04/06 09:48:21;;;;;;;0.77;0.77;;;22.30;25.30;;;;;;5036633;28;20941;-78
2023/04/06 09:50:50;;;;;;;2.20;1.50;;;21.00;26.30;;;;;;5036339;28;20462;-75
2023/04/06 09:53:19;;;;;;;1.10;1.00;;;21.20;26.70;;;;;;5036018;28;21015;-78
2023/04/06 09:55:46;;;;;;;1.27;1.10;;;20.80;26.70;;;;;;5018542;28;20875;-78
2023/04/06 09:58:15;;;;;;;0.47;0.47;;;21.40;27.00;;;;;;5035806;28;20901;-76
2023/04/06 10:01:03;;;;;;;1.43;1.13;;;21.60;25.60;;;;;;5035986;28;20400;-79
2023/04/06 10:03:37;;;;;;;1.87;1.40;;;22.00;25.90;;;;;;5035508;28;20879;-79
2023/04/06 10:06:05;;;;;;;1.27;1.07;;;21.60;26.20;;;;;;5035186;28;20408;-79
2023/04/06 10:08:34;;;;;;;1.17;1.07;;;21.60;25.90;;;;;;5035725;28;20421;-79
2023/04/06 10:11:00;;;;;;;1.10;0.90;;;20.90;26.80;;;;;;5035564;28;20983;-79
2023/04/06 10:13:27;;;;;;;1.20;1.07;;;20.00;27.90;;;;;;5035435;28;20492;-76
2023/04/06 10:15:54;;;;;;;1.23;1.10;;;19.70;28.00;;;;;;5035994;28;20448;-77
2023/04/06 10:18:20;;;;;;;1.00;1.00;;;19.40;28.20;;;;;;5035928;28;20432;-79
2023/04/06 10:20:54;;;;;;;1.27;1.17;;;17.60;28.10;;;;;;5035683;28;20452;-80
2023/04/06 10:23:32;;;;;;;0.73;0.73;;;17.20;29.50;;;;;;5035457;28;20409;-76
2023/04/06 10:26:00;;;;;;;1.40;1.30;;;17.10;31.80;;;;;;5017985;28;20441;-79
2023/04/06 10:28:30;;;;;;;1.00;0.90;;;17.30;29.60;;;;;;5035399;28;20419;-80
2023/04/06 10:31:00;;;;;;;2.03;1.57;;;17.80;29.80;;;;;;5035666;28;20434;-79
2023/04/06 10:33:27;;;;;;;0.73;0.73;;;18.20;28.90;;;;;;5035486;28;20477;-76
2023/04/06 10:35:55;;;;;;;2.30;1.10;;;18.50;28.50;;;;;;5034995;28;20423;-74
2023/04/06 10:38:22;;;;;;;0.50;0.50;;;18.20;28.40;;;;;;5035341;28;20413;-77
2023/04/06 10:40:48;;;;;;;0.80;0.80;;;17.60;28.60;;;;;;5035041;28;20778;-76
2023/04/06 10:43:21;;;;;;;4.20;2.50;;;17.30;29.00;;;;;;5035396;28;20417;-76
2023/04/06 10:45:55;;;;;;;0.90;0.90;;;16.70;30.60;;;;;;5034963;28;20417;-76
2023/04/06 10:48:21;;;;;;;1.23;1.23;;;15.80;32.00;;;;;;5034916;28;20799;-76
2023/04/06 10:50:49;;;;;;;1.43;1.37;;;15.50;32.20;;;;;;5034370;28;20493;-76
2023/04/06 10:53:27;;;;;;;1.00;1.00;;;15.40;31.10;;;;;;5035023;28;20195;-72
2023/04/06 10:55:56;;;;;;;2.00;1.87;;;15.30;31.10;;;;;;5017571;28;20426;-72
2023/04/06 10:58:25;;;;;;;1.20;1.10;;;14.70;31.80;;;;;;5035276;28;20412;-72
2023/04/06 11:00:51;;;;;;;2.77;0.80;;;15.00;32.90;;;;;;5034300;28;20439;-76
2023/04/06 11:03:18;;;;;;;1.27;1.17;;;14.90;32.20;;;;;;5034025;28;20405;-74
2023/04/06 11:05:52;;;;;;;1.93;1.20;;;14.90;32.80;;;;;;5033256;28;20420;-75
2023/04/06 11:08:30;;;;;;;1.57;0.77;;;15.10;32.10;;;;;;5034818;28;20401;-76
2023/04/06 11:11:09;;;;;;;1.53;1.43;;;15.00;32.50;;;;;;5034424;28;20888;-76
2023/04/06 11:13:41;;;;;;;1.20;1.10;;;15.00;31.20;;;;;;5034378;28;20807;-76
2023/04/06 11:16:16;;;;;;;2.57;1.47;;;14.90;31.70;;;;;;5033308;28;20408;-74
2023/04/06 11:18:47;;;;;;;0.60;0.60;;;14.90;32.90;;;;;;5032890;28;20436;-76
2023/04/06 11:21:13;;;;;;;0.70;0.70;;;14.80;30.60;;;;;;5032940;28;20508;-73
2023/04/06 11:23:39;;;;;;;1.53;1.43;;;14.60;31.00;;;;;;5032966;28;20505;-75
2023/04/06 11:26:04;;;;;;;1.37;1.23;;;14.50;31.80;;;;;;5033154;28;20246;-74
2023/04/06 11:28:30;;;;;;;0.63;0.63;;;14.20;31.00;;;;;;5033026;28;20175;-73
2023/04/06 11:30:56;;;;;;;0.77;0.70;;;14.20;34.00;;;;;;5034097;28;20648;-76
2023/04/06 11:33:22;;;;;;;5.80;1.30;;;14.30;33.30;;;;;;5033830;28;20293;-74
2023/04/06 11:35:48;;;;;;;0.60;0.60;;;14.40;32.40;;;;;;5016798;28;20425;-75
2023/04/06 11:38:14;;;;;;;1.13;1.13;;;14.40;32.00;;;;;;5034150;28;20886;-76
2023/04/06 11:40:40;;;;;;;0.80;0.80;;;14.40;31.50;;;;;;5034083;28;20471;-73
2023/04/06 11:43:06;;;;;;;1.00;0.90;;;14.10;31.40;;;;;;5033924;28;20519;-74
2023/04/06 11:45:42;;;;;;;3.20;1.20;;;13.80;31.20;;;;;;5034199;28;20467;-75
2023/04/06 11:48:18;;;;;;;0.70;0.70;;;13.60;31.10;;;;;;5034471;28;20492;-74
2023/04/06 11:50:46;;;;;;;1.20;1.10;;;13.20;30.90;;;;;;5034095;28;20429;-77
2023/04/06 11:53:12;;;;;;;1.17;1.17;;;12.90;31.10;;;;;;5033860;28;20449;-73
2023/04/06 11:55:38;;;;;;;1.57;1.47;;;12.50;31.00;;;;;;5033998;28;20896;-75
2023/04/06 11:58:04;;;;;;;1.83;1.73;;;12.40;33.30;;;;;;5034069;28;20171;-73
2023/04/06 12:00:34;;;;;;;0.83;0.83;;;12.60;33.70;;;;;;5033666;28;20989;-73
2023/04/06 12:03:00;;;;;;;0.60;0.60;;;12.70;33.00;;;;;;5016149;28;20190;-73
2023/04/06 12:05:26;;;;;;;0.60;0.60;;;12.80;32.00;;;;;;5015945;28;20496;-75
2023/04/06 12:07:51;;;;;;;0.70;0.70;;;12.80;32.90;;;;;;5033706;28;20967;-76
2023/04/06 12:10:17;;;;;;;0.87;0.87;;;13.10;32.70;;;;;;5033734;28;20259;-72
2023/04/06 12:12:43;;;;;;;2.00;1.80;;;13.00;32.60;;;;;;5032898;28;20265;-73
2023/04/06 12:15:09;;;;;;;0.70;0.70;;;12.90;33.30;;;;;;5031940;28;20200;-73
2023/04/06 12:17:35;;;;;;;0.83;0.83;;;13.30;32.90;;;;;;5032844;28;20901;-74
2023/04/06 12:20:00;;;;;;;0.50;0.50;;;13.10;33.80;;;;;;5032905;28;20470;-74
2023/04/06 12:22:26;;;;;;;1.13;1.13;;;13.30;30.80;;;;;;5032936;28;20422;-75
2023/04/06 12:24:52;;;;;;;1.00;0.70;;;13.30;30.30;;;;;;5032746;28;20267;-73
2023/04/06 12:27:17;;;;;;;1.50;1.13;;;13.20;31.10;;;;;;5033222;28;20581;-71
2023/04/06 12:29:43;;;;;;;2.83;2.00;;;13.20;30.80;;;;;;5033446;28;20253;-74
2023/04/06 12:32:08;;;;;;;2.53;1.03;;;13.20;31.40;;;;;;5015653;28;20373;-76
2023/04/06 12:34:34;;;;;;;1.30;1.20;;;13.10;31.70;;;;;;5015446;28;20230;-73
2023/04/06 12:37:00;;;;;;;0.87;0.87;;;13.10;30.50;;;;;;5033593;28;20191;-75
2023/04/06 12:39:27;;;;;;;1.37;1.27;;;13.00;30.40;;;;;;5033127;28;20225;-73
2023/04/06 12:41:53;;;;;;;1.70;1.60;;;12.90;31.60;;;;;;5015236;28;20566;-73
2023/04/06 12:44:18;;;;;;;1.03;1.03;;;12.90;32.10;;;;;;5032961;28;20415;-74
2023/04/06 12:46:45;;;;;;;0.60;0.60;;;12.80;31.00;;;;;;5033171;28;20413;-77
2023/04/06 12:49:11;;;;;;;2.07;1.70;;;13.10;31.20;;;;;;5035182;28;20254;-74